createdAt,value
2023-01-22T00:01:09.363Z,92.90
2023-01-22T00:03:36.921Z,93.00
2023-01-22T00:06:03.883Z,93.10
2023-01-22T00:08:30.822Z,93.10
2023-01-22T00:10:57.831Z,93.10
2023-01-22T00:13:25.924Z,93.30
2023-01-22T00:15:53.235Z,93.30
2023-01-22T00:18:20.304Z,93.30
2023-01-22T00:20:51.161Z,93.30
2023-01-22T00:23:18.757Z,93.30
2023-01-22T00:25:45.807Z,93.20
2023-01-22T00:28:12.794Z,93.20
2023-01-22T05:30:50.524Z,94.30
2023-01-22T05:33:17.468Z,94.50
2023-01-22T05:35:44.451Z,94.40
2023-01-22T05:38:11.345Z,94.50
2023-01-22T05:40:38.311Z,94.30
2023-01-22T05:43:05.334Z,94.40
2023-01-22T05:45:32.295Z,94.60
2023-01-22T05:47:59.192Z,94.60
2023-01-22T05:50:26.130Z,94.50
2023-01-22T05:52:56.014Z,94.60
2023-01-22T05:55:23.090Z,94.40
2023-01-22T05:57:50.036Z,94.40
2023-01-22T06:00:17.652Z,94.50
2023-01-22T06:02:44.791Z,94.60
2023-01-22T06:05:11.848Z,94.50
2023-01-22T06:07:38.852Z,94.60
2023-01-22T06:10:06.128Z,94.60
2023-01-22T06:12:33.107Z,94.60
2023-01-22T06:15:00.037Z,94.50
2023-01-22T06:17:27.115Z,94.20
2023-01-22T06:19:54.021Z,94.20
2023-01-22T06:22:21.076Z,94.40
2023-01-22T06:24:48.037Z,94.00
2023-01-22T06:27:15.015Z,93.80
2023-01-22T06:29:41.979Z,93.90
2023-01-22T06:32:08.942Z,93.90
2023-01-22T06:34:35.842Z,93.80
2023-01-22T06:37:02.783Z,93.80
2023-01-22T06:39:29.721Z,93.90
2023-01-22T06:41:56.710Z,93.80
2023-01-22T06:44:23.730Z,93.90
2023-01-22T06:46:50.714Z,93.80
2023-01-22T06:49:17.651Z,93.80
2023-01-22T06:51:44.594Z,93.90
2023-01-22T06:54:12.455Z,93.90
2023-01-22T06:56:39.489Z,93.80
2023-01-22T06:59:06.523Z,93.80
2023-01-22T07:01:33.482Z,94.00
2023-01-22T07:04:00.549Z,93.80
2023-01-22T07:06:27.574Z,93.80
2023-01-22T07:08:56.396Z,93.70
2023-01-22T07:11:23.339Z,93.70
2023-01-22T07:13:50.301Z,93.70
2023-01-22T07:16:17.316Z,93.60
2023-01-22T07:18:44.356Z,93.50
2023-01-22T07:21:12.007Z,93.30
2023-01-22T07:23:38.987Z,93.50
2023-01-22T07:26:05.933Z,93.60
2023-01-22T07:28:33.116Z,93.60
2023-01-22T07:31:00.757Z,93.50
2023-01-22T07:33:27.843Z,93.70
2023-01-22T07:35:56.454Z,93.70
2023-01-22T07:38:24.052Z,93.70
2023-01-22T07:40:51.183Z,93.80
2023-01-22T07:43:18.176Z,93.70
2023-01-22T07:45:45.259Z,93.70
2023-01-22T07:48:12.550Z,93.70
2023-01-22T07:50:40.465Z,93.80
2023-01-22T07:53:08.207Z,94.00
2023-01-22T07:55:35.184Z,93.90
2023-01-22T07:58:03.772Z,93.90
2023-01-22T08:00:31.364Z,93.70
2023-01-22T08:02:58.391Z,93.70
2023-01-22T08:05:25.556Z,93.50
2023-01-22T08:07:52.712Z,93.40
2023-01-22T08:10:20.338Z,93.30
2023-01-22T08:12:47.746Z,93.30
2023-01-22T08:15:15.116Z,93.40
2023-01-22T08:17:42.391Z,93.30
2023-01-22T08:20:09.715Z,93.30
2023-01-22T08:22:36.872Z,93.40
2023-01-22T08:25:03.909Z,93.30
2023-01-22T08:27:30.974Z,93.30
2023-01-22T08:29:57.976Z,93.30
2023-01-22T08:32:24.996Z,93.20
2023-01-22T08:34:54.273Z,93.10
2023-01-22T08:37:21.610Z,93.10
2023-01-22T08:39:48.526Z,93.10
2023-01-22T08:42:15.873Z,93.10
2023-01-22T08:44:43.046Z,93.10
2023-01-22T08:47:11.477Z,93.30
2023-01-22T08:49:39.593Z,93.30
2023-01-22T08:52:06.598Z,93.40
2023-01-22T08:54:33.533Z,93.20
2023-01-22T08:57:00.488Z,93.20
2023-01-22T08:59:29.363Z,93.20
2023-01-22T09:01:58.557Z,93.10
2023-01-22T09:04:25.585Z,93.00
2023-01-22T09:06:52.513Z,93.30
2023-01-22T09:09:19.439Z,93.30
2023-01-22T09:11:46.784Z,93.20
2023-01-22T09:14:14.123Z,93.00
2023-01-22T09:16:41.068Z,93.00
2023-01-22T09:19:08.000Z,92.70
2023-01-22T09:21:37.343Z,93.10
2023-01-22T09:24:04.952Z,93.30
2023-01-22T09:26:32.450Z,92.70
2023-01-22T09:29:00.713Z,92.60
2023-01-22T09:31:27.860Z,92.90
2023-01-22T09:33:55.684Z,92.40
2023-01-22T09:36:22.890Z,92.30
2023-01-22T09:38:49.804Z,92.40
2023-01-22T09:41:19.538Z,92.10
2023-01-22T09:43:51.982Z,92.50
2023-01-22T09:46:22.859Z,92.70
2023-01-22T09:48:53.078Z,93.00
2023-01-22T09:51:22.183Z,92.60
2023-01-22T09:53:52.753Z,92.70
2023-01-22T09:56:21.209Z,92.50
2023-01-22T09:58:49.778Z,92.40
2023-01-22T10:01:18.437Z,92.60
2023-01-22T10:03:56.770Z,92.40
2023-01-22T10:06:24.643Z,92.40
2023-01-22T10:09:03.459Z,92.90
2023-01-22T10:11:30.762Z,92.90
2023-01-22T10:13:59.043Z,93.10
2023-01-22T10:16:26.147Z,93.30
2023-01-22T10:18:57.004Z,93.10
2023-01-22T10:21:28.891Z,93.00
2023-01-22T10:23:57.983Z,92.60
2023-01-22T10:26:29.105Z,92.20
2023-01-22T10:28:57.773Z,92.20
2023-01-22T10:31:30.106Z,92.70
2023-01-22T10:33:58.084Z,92.50
2023-01-22T10:36:25.441Z,92.70
2023-01-22T10:39:02.481Z,92.80
2023-01-22T10:41:30.019Z,92.40
2023-01-22T10:44:07.093Z,92.20
2023-01-22T10:46:34.004Z,92.30
2023-01-22T10:49:01.798Z,92.20
2023-01-22T10:51:39.851Z,92.20
2023-01-22T10:54:20.349Z,92.30
2023-01-22T10:56:47.692Z,92.20
2023-01-22T10:59:17.358Z,92.30
2023-01-22T11:01:44.345Z,91.50
2023-01-22T11:04:14.431Z,90.90
2023-01-22T11:06:50.959Z,90.50
2023-01-22T11:09:25.029Z,90.50
2023-01-22T11:11:57.836Z,91.10
2023-01-22T11:14:31.103Z,90.90
2023-01-22T11:17:01.441Z,90.90
2023-01-22T11:19:37.543Z,90.90
2023-01-22T11:22:06.496Z,91.10
2023-01-22T11:24:33.429Z,90.60
2023-01-22T11:27:06.174Z,90.20
2023-01-22T11:29:44.994Z,90.50
2023-01-22T11:32:25.912Z,90.50
2023-01-22T11:35:11.731Z,90.40
2023-01-22T11:37:38.693Z,90.50
2023-01-22T11:40:05.598Z,90.50
2023-01-22T11:42:35.922Z,91.00
2023-01-22T11:45:14.892Z,90.70
2023-01-22T11:47:49.729Z,90.00
2023-01-22T11:50:35.261Z,90.10
2023-01-22T11:53:08.955Z,90.30
2023-01-22T11:55:44.862Z,90.40
2023-01-22T11:58:17.294Z,90.10
2023-01-22T12:00:59.339Z,90.00
2023-01-22T12:03:32.139Z,90.00
2023-01-22T12:05:59.256Z,89.60
2023-01-22T12:08:46.705Z,90.00
2023-01-22T12:11:18.821Z,89.00
2023-01-22T12:13:51.670Z,89.70
2023-01-22T12:16:27.833Z,90.00
2023-01-22T12:19:03.728Z,90.00
2023-01-22T12:21:33.739Z,90.10
2023-01-22T12:24:21.861Z,90.10
2023-01-22T12:27:07.179Z,89.00
2023-01-22T12:29:36.300Z,89.80
2023-01-22T12:32:12.031Z,89.40
2023-01-22T12:34:42.269Z,89.90
2023-01-22T12:37:12.637Z,89.30
2023-01-22T12:39:45.106Z,90.00
2023-01-22T12:42:24.649Z,89.60
2023-01-22T12:45:02.544Z,89.50
2023-01-22T12:47:36.396Z,89.80
2023-01-22T12:50:04.874Z,89.50
2023-01-22T12:52:34.133Z,90.00
2023-01-22T12:55:01.828Z,90.00
2023-01-22T12:57:39.491Z,90.10
2023-01-22T13:00:11.358Z,89.80
2023-01-22T13:02:39.274Z,89.20
2023-01-22T13:05:16.017Z,89.00
2023-01-22T13:07:43.202Z,90.20
2023-01-22T13:10:24.082Z,89.60
2023-01-22T13:12:54.980Z,90.10
2023-01-22T13:15:21.913Z,89.30
2023-01-22T13:18:06.535Z,88.90
2023-01-22T13:20:36.216Z,88.30
2023-01-22T13:23:05.077Z,88.80
2023-01-22T13:25:32.847Z,89.30
2023-01-22T13:28:00.354Z,88.80
2023-01-22T13:30:28.521Z,89.10
2023-01-22T13:33:02.871Z,88.50
2023-01-22T13:35:30.023Z,89.40
2023-01-22T13:37:56.983Z,89.10
2023-01-22T13:40:25.357Z,88.40
2023-01-22T13:42:53.277Z,89.10
2023-01-22T13:45:25.159Z,88.80
2023-01-22T13:47:56.493Z,89.70
2023-01-22T13:50:25.242Z,89.60
2023-01-22T13:52:52.299Z,88.70
2023-01-22T13:55:20.983Z,88.80
2023-01-22T13:57:48.923Z,88.40
2023-01-22T14:00:29.559Z,88.90
2023-01-22T14:02:57.404Z,88.70
2023-01-22T14:05:25.566Z,88.50
2023-01-22T14:08:03.015Z,89.10
2023-01-22T14:10:30.016Z,88.90
2023-01-22T14:13:07.008Z,89.50
2023-01-22T14:15:34.082Z,88.80
2023-01-22T14:18:06.994Z,88.80
2023-01-22T14:20:34.015Z,88.20
2023-01-22T14:23:00.953Z,88.40
2023-01-22T14:25:27.889Z,88.60
2023-01-22T14:27:55.029Z,89.00
2023-01-22T14:30:22.696Z,88.90
2023-01-22T14:32:49.671Z,89.00
2023-01-22T14:35:20.900Z,88.90
2023-01-22T14:37:48.190Z,88.70
2023-01-22T14:40:16.472Z,88.50
2023-01-22T14:42:43.518Z,89.10
2023-01-22T14:45:11.466Z,89.20
2023-01-22T14:47:38.419Z,87.80
2023-01-22T14:50:06.086Z,89.10
2023-01-22T14:52:33.161Z,89.50
2023-01-22T14:55:00.243Z,89.40
2023-01-22T14:57:27.306Z,88.90
2023-01-22T14:59:54.265Z,89.20
2023-01-22T15:02:21.324Z,88.20
2023-01-22T15:04:48.684Z,88.50
2023-01-22T15:07:15.679Z,88.60
2023-01-22T15:09:43.645Z,88.90
2023-01-22T15:12:10.681Z,88.80
2023-01-22T15:14:37.620Z,89.10
2023-01-22T15:17:04.674Z,89.20
2023-01-22T15:19:40.706Z,89.10
2023-01-22T15:22:08.478Z,89.20
2023-01-22T15:24:35.405Z,89.10
2023-01-22T15:27:02.417Z,89.20
2023-01-22T15:29:29.356Z,89.40
2023-01-22T15:31:56.341Z,89.40
2023-01-22T15:34:23.820Z,89.10
2023-01-22T15:36:50.767Z,89.10
2023-01-22T15:39:17.766Z,88.40
2023-01-22T15:41:45.250Z,87.60
2023-01-22T15:44:13.319Z,88.20
2023-01-22T15:46:41.888Z,87.50
2023-01-22T15:49:10.314Z,87.30
2023-01-22T15:51:37.395Z,87.00
2023-01-22T15:54:04.947Z,87.50
2023-01-22T15:56:32.767Z,87.00
2023-01-22T15:58:59.913Z,87.70
2023-01-22T16:01:27.508Z,87.80
2023-01-22T16:03:54.883Z,87.70
2023-01-22T16:06:23.806Z,88.00
2023-01-22T16:08:51.624Z,88.00
2023-01-22T16:11:19.103Z,87.90
2023-01-22T16:13:46.352Z,87.50
2023-01-22T16:16:13.293Z,87.50
2023-01-22T16:18:40.604Z,87.30
2023-01-22T16:21:08.606Z,87.90
2023-01-22T16:23:39.576Z,88.00
2023-01-22T16:26:09.229Z,87.70
2023-01-22T16:28:36.834Z,88.10
2023-01-22T16:31:04.733Z,88.30
2023-01-22T16:33:32.751Z,88.00
2023-01-22T16:36:10.341Z,88.00
2023-01-22T16:38:37.646Z,88.20
2023-01-22T16:41:07.625Z,88.50
2023-01-22T16:43:34.613Z,89.00
2023-01-22T16:46:01.543Z,88.40
2023-01-22T16:48:28.465Z,88.90
2023-01-22T16:50:55.470Z,88.10
2023-01-22T16:53:22.405Z,88.80
2023-01-22T16:55:49.343Z,88.40
2023-01-22T16:58:16.254Z,88.80
2023-01-22T17:00:43.316Z,88.80
2023-01-22T17:03:10.239Z,89.40
2023-01-22T17:05:37.219Z,89.20
2023-01-22T17:08:04.196Z,88.50
2023-01-22T17:10:31.123Z,89.10
2023-01-22T17:12:58.080Z,89.90
2023-01-22T17:15:25.100Z,89.80
2023-01-22T17:17:52.037Z,89.20
2023-01-22T17:20:19.222Z,89.50
2023-01-22T17:22:46.399Z,89.10
2023-01-22T17:25:13.455Z,89.40
2023-01-22T17:27:40.454Z,89.70
2023-01-22T17:30:08.835Z,89.60
2023-01-22T17:32:36.066Z,89.70
2023-01-22T17:35:03.187Z,89.80
2023-01-22T17:37:30.152Z,89.60
2023-01-22T17:39:57.113Z,89.30
2023-01-22T17:42:24.285Z,89.10
2023-01-22T17:44:51.218Z,89.50
2023-01-22T17:47:18.151Z,90.00
2023-01-22T17:49:46.796Z,90.00
2023-01-22T17:52:14.672Z,89.60
2023-01-22T17:54:41.650Z,89.90
2023-01-22T17:57:09.754Z,90.00
2023-01-22T17:59:36.908Z,90.00
2023-01-22T18:02:03.849Z,89.70
2023-01-22T18:04:31.217Z,90.10
2023-01-22T18:06:58.243Z,90.00
2023-01-22T18:09:25.243Z,90.00
2023-01-22T18:11:52.321Z,89.50
2023-01-22T18:14:22.458Z,90.00
2023-01-22T18:16:49.883Z,90.00
2023-01-22T18:19:18.595Z,89.60
2023-01-22T18:21:45.548Z,89.90
2023-01-22T18:24:12.542Z,89.60
2023-01-22T18:26:39.687Z,89.50
2023-01-22T18:29:06.636Z,89.00
2023-01-22T18:31:34.253Z,89.30
2023-01-22T18:34:02.776Z,89.30
2023-01-22T18:36:30.835Z,89.60
2023-01-22T18:39:01.769Z,89.70
2023-01-22T18:41:28.770Z,89.40
2023-01-22T18:43:56.693Z,89.60
2023-01-22T18:46:24.795Z,89.50
2023-01-22T18:48:53.344Z,89.20
2023-01-22T18:51:20.700Z,89.20
2023-01-22T18:53:47.706Z,88.80
2023-01-22T18:56:14.903Z,89.30
2023-01-22T18:58:44.571Z,88.80
2023-01-22T19:01:14.183Z,88.90
2023-01-22T19:03:42.533Z,88.70
2023-01-22T19:06:16.388Z,88.90
2023-01-22T19:08:44.256Z,88.80
2023-01-22T19:11:12.191Z,89.30
2023-01-22T19:13:40.012Z,88.80
2023-01-22T19:16:08.648Z,89.10
2023-01-22T19:18:35.620Z,88.90
2023-01-22T19:21:04.112Z,89.10
2023-01-22T19:23:31.361Z,89.30
2023-01-22T19:26:08.448Z,89.10
2023-01-22T19:28:35.653Z,89.40
2023-01-22T19:31:02.661Z,89.20
2023-01-22T19:33:29.682Z,89.70
2023-01-22T19:35:56.802Z,89.80
2023-01-22T19:38:23.763Z,89.90
2023-01-22T19:40:50.731Z,89.60
2023-01-22T19:43:17.649Z,89.60
2023-01-22T19:45:44.529Z,89.90
2023-01-22T19:48:11.408Z,89.80
2023-01-22T19:50:40.619Z,90.00
2023-01-22T19:53:08.302Z,90.00
2023-01-22T19:55:36.184Z,89.90
2023-01-22T19:58:03.468Z,89.40
2023-01-22T20:00:30.605Z,89.80
2023-01-22T20:02:57.504Z,90.00
2023-01-22T20:05:24.515Z,90.00
2023-01-22T20:07:51.510Z,90.40
2023-01-22T20:10:19.102Z,90.20
2023-01-22T20:12:49.165Z,90.30
2023-01-22T20:15:16.650Z,90.50
2023-01-22T20:17:43.705Z,90.40
2023-01-22T20:20:10.980Z,90.20
2023-01-22T20:22:37.861Z,90.40
2023-01-22T20:25:05.494Z,90.40
2023-01-22T20:27:32.402Z,90.20
2023-01-22T20:29:59.288Z,90.50
2023-01-22T20:32:28.510Z,90.70
2023-01-22T20:34:55.529Z,90.60
2023-01-22T20:37:22.454Z,90.80
2023-01-22T20:39:49.365Z,90.70
2023-01-22T20:42:16.458Z,90.80
2023-01-22T20:44:45.918Z,90.80
2023-01-22T20:47:12.932Z,90.70
2023-01-22T20:49:39.834Z,90.80
2023-01-22T20:52:06.776Z,90.70
2023-01-22T20:54:35.278Z,91.00
2023-01-22T20:57:06.833Z,90.90
2023-01-22T20:59:33.810Z,90.80
2023-01-22T21:02:00.787Z,90.80
2023-01-22T21:04:27.725Z,91.10
2023-01-22T21:06:54.652Z,91.00
2023-01-22T21:09:21.610Z,91.20
2023-01-22T21:11:49.080Z,91.10
2023-01-22T21:14:16.778Z,91.10
2023-01-22T21:16:46.502Z,91.20
2023-01-22T21:19:15.692Z,91.20
2023-01-22T21:21:42.629Z,91.70
2023-01-22T21:24:09.662Z,91.50
2023-01-22T21:26:36.914Z,91.60
2023-01-22T21:29:05.370Z,91.60
2023-01-22T21:31:32.323Z,91.80
2023-01-22T21:34:03.960Z,91.70
2023-01-22T21:36:33.025Z,91.90
2023-01-22T21:39:00.286Z,92.10
2023-01-22T21:41:27.330Z,92.20
2023-01-22T21:44:12.782Z,92.00
2023-01-22T21:46:40.953Z,92.30
2023-01-22T21:49:17.713Z,92.20
2023-01-22T21:51:45.047Z,92.30
2023-01-22T21:54:13.221Z,92.50
2023-01-22T21:56:40.415Z,92.40
2023-01-22T21:59:07.605Z,92.40
2023-01-22T22:01:35.162Z,92.50
2023-01-22T22:04:02.882Z,92.40
2023-01-22T22:06:30.432Z,92.40
2023-01-22T22:08:59.652Z,92.40
2023-01-22T22:11:26.874Z,92.50
2023-01-22T22:13:54.180Z,92.40
2023-01-22T22:16:21.757Z,92.30
2023-01-22T22:18:48.881Z,92.30
2023-01-22T22:21:15.922Z,92.30
2023-01-22T22:23:42.809Z,92.40
2023-01-22T22:26:10.404Z,92.40
2023-01-22T22:28:37.283Z,92.50
2023-01-22T22:31:11.593Z,92.50
2023-01-22T22:33:39.690Z,92.60
2023-01-22T22:36:06.836Z,92.50
2023-01-22T22:38:33.877Z,92.60
2023-01-22T22:41:05.144Z,92.60
2023-01-22T22:43:34.291Z,92.60
2023-01-22T22:46:02.210Z,92.60
2023-01-22T22:48:29.149Z,92.70
2023-01-22T22:50:56.117Z,92.60
2023-01-22T22:53:23.002Z,92.30
2023-01-22T22:55:49.914Z,92.40
2023-01-22T22:58:16.841Z,92.20
2023-01-22T23:00:44.025Z,92.30
2023-01-22T23:03:11.080Z,92.30
2023-01-22T23:05:38.824Z,92.30
2023-01-22T23:08:05.750Z,92.40
2023-01-22T23:10:32.700Z,92.20
2023-01-22T23:13:01.137Z,92.20
2023-01-22T23:15:28.831Z,92.30
2023-01-22T23:17:56.481Z,92.30
2023-01-22T23:20:24.707Z,92.40
2023-01-22T23:22:55.401Z,92.40
2023-01-22T23:25:22.362Z,92.40
2023-01-22T23:27:49.333Z,92.40
2023-01-22T23:30:16.486Z,92.30
2023-01-22T23:32:44.318Z,92.40
2023-01-22T23:35:11.623Z,92.50
2023-01-22T23:37:38.723Z,92.80
2023-01-22T23:40:05.932Z,92.70
2023-01-22T23:42:32.868Z,92.70
2023-01-22T23:44:59.777Z,92.60
2023-01-22T23:47:27.232Z,92.50
2023-01-22T23:49:54.210Z,92.60
2023-01-22T23:52:21.339Z,92.70
2023-01-22T23:54:48.290Z,92.70
2023-01-22T23:57:15.252Z,92.80
2023-01-22T23:59:42.202Z,92.70
